Johann Essberger — CQKG — position and weather

sailwx.info

Track history (hours):
 
Tides and Currents Weather Stations Pressure Air Temp Water Temp Dewpoint Dewpoint Depression Visibility Wind Speed Wind Dir Waves Ship Positions

Johann Essberger

Last reported at 2014-Nov-23 14:12 UTC. Time now 2014-Nov-23 14:45 UTC.
Position N 54°37' E 012°24'.

Length 100 m; draft 6.9 m.

Type: Ship (hazmat cat C). MMSI: 255804460.

Date/timePositionNaut miles runAvg speedWind from/ knotsBaromVisibWave heightAir tempDewpointWater temp
2014-Nov-23 14:12N 54°37' E 012°24'7 9.9
2014-Nov-23 13:30N 54°31' E 012°16'9 9.4
2014-Nov-23 12:33N 54°24' E 012°06'1010.3
2014-Nov-23 11:31N 54°24' E 011°48'31 9.8
2014-Nov-23 08:23N 54°35' E 010°59'8 9.6
2014-Nov-23 07:33N 54°34' E 010°45'1110.5
2014-Nov-23 06:33N 54°32' E 010°27'1010.5
2014-Nov-23 05:33N 54°25' E 010°13'4 4.1
2014-Nov-23 04:33N 54°22' E 010°09'5 4.9
2014-Nov-23 03:33N 54°21' E 010°00'5 5.0
2014-Nov-23 02:33N 54°22' E 009°52'8 7.4
2014-Nov-23 01:32N 54°18' E 009°41'6 6.5
2014-Nov-23 00:33N 54°13' E 009°34'5 5.2
2014-Nov-22 23:33N 54°10' E 009°26'6 5.1
2014-Nov-22 22:28N 54°06' E 009°20'8 8.3
2014-Nov-22 21:33N 53°59' E 009°17'7 7.1
2014-Nov-22 20:33N 53°54' E 009°09'1 1.2
2014-Nov-22 19:34N 53°53' E 009°07'8 8.5
2014-Nov-22 18:34N 53°51' E 008°53'9 9.3
2014-Nov-22 17:33N 53°55' E 008°40'1010.4
2014-Nov-22 16:33N 53°59' E 008°23'1211.6
2014-Nov-22 15:33N 53°60' E 008°04'1110.7
2014-Nov-22 14:33N 54°05' E 007°47'1010.1
2014-Nov-22 13:33N 54°09' E 007°32'1110.7
2014-Nov-22 12:33N 54°09' E 007°14'4210.5
2014-Nov-22 08:33N 54°07' E 006°02'1010.5
2014-Nov-22 07:33N 54°06' E 005°44'1010.2
2014-Nov-22 06:34N 54°04' E 005°27'10 9.9
2014-Nov-22 05:33N 54°03' E 005°10'10 9.7
2014-Nov-22 04:33N 54°02' E 004°54'154 9.1
2014-Nov-21 11:33N 53°34' E 000°37'10 9.5
2014-Nov-21 10:33N 53°32' E 000°21'1010.2
2014-Nov-21 09:33N 53°35' E 000°05'1212.2
2014-Nov-21 08:33N 53°41' W 000°14'2 2.1
2014-Nov-21 07:26N 53°44' W 000°15'0 0.0
2014-Nov-20 09:24N 53°44' W 000°15'4 4.4
2014-Nov-20 08:33N 53°40' W 000°13'1110.7
2014-Nov-20 07:33N 53°35' E 000°03'1010.4
2014-Nov-20 06:33N 53°33' E 000°21'10 9.3
2014-Nov-20 05:32N 53°28' E 000°34'2610.8
2014-Nov-20 03:09N 53°17' E 001°13'711.3
2014-Nov-20 02:30N 53°14' E 001°24'1111.1
2014-Nov-20 01:33N 53°10' E 001°40'1111.3
2014-Nov-20 00:33N 53°05' E 001°57'84 8.9
2014-Nov-19 15:10N 52°07' E 003°37'711.9
2014-Nov-19 14:33N 52°05' E 003°48'1212.4
2014-Nov-19 13:33N 51°59' E 004°06'9 8.8
2014-Nov-19 12:33N 51°53' E 004°17'0 0.1
2014-Nov-19 11:33N 51°54' E 004°17'0 0.0
2014-Nov-19 10:31N 51°54' E 004°17'0 0.0
2014-Nov-18 16:03N 51°54' E 004°17'0 0.5
2014-Nov-18 15:33N 51°53' E 004°17'3 3.2
2014-Nov-18 14:33N 51°56' E 004°14'1211.9
2014-Nov-18 13:33N 52°00' E 003°56'12 2.4
2014-Nov-18 08:31N 52°08' E 003°41'0 0.0
2014-Nov-18 05:19N 52°08' E 003°41'0 0.0
2014-Nov-17 20:19N 52°08' E 003°41'0 0.0
2014-Nov-17 15:13N 52°08' E 003°41'0 0.0
2014-Nov-17 06:07N 52°08' E 003°41'0 0.1
2014-Nov-17 05:31N 52°08' E 003°41'0 0.0
2014-Nov-17 04:31N 52°08' E 003°41'0 0.0
2014-Nov-17 03:33N 52°08' E 003°41'12 6.0
2014-Nov-17 01:30N 52°20' E 003°47'113 9.4
2014-Nov-16 13:32N 54°04' E 004°57'9 9.6
2014-Nov-16 12:33N 54°06' E 005°12'10 9.8
2014-Nov-16 11:33N 54°07' E 005°29'1010.2
2014-Nov-16 10:33N 54°09' E 005°46'4410.8
2014-Nov-16 06:30N 54°12' E 007°01'1010.7
2014-Nov-16 05:33N 54°12' E 007°18'1010.5
2014-Nov-16 04:33N 54°11' E 007°36'1110.6
2014-Nov-16 03:33N 54°06' E 007°52'1010.3
2014-Nov-16 02:33N 54°01' E 008°07'1211.6
2014-Nov-16 01:33N 53°59' E 008°26'1313.2
2014-Nov-16 00:34N 53°52' E 008°45'1514.5
2014-Nov-15 23:33N 53°53' E 009°09'1414.0
2014-Nov-15 22:32N 53°44' E 009°28'5 0.1
2014-Nov-14 12:33N 53°39' E 009°31'0 0.1
2014-Nov-14 11:33N 53°39' E 009°31'0 0.0
2014-Nov-14 10:31N 53°39' E 009°31'0 0.0
2014-Nov-13 16:14N 53°39' E 009°31'2 3.1
2014-Nov-13 15:34N 53°41' E 009°30'1515.4
2014-Nov-13 14:33N 53°53' E 009°13'  
Track history (hours):
 
Tides and Currents Weather Stations Pressure Air Temp Water Temp Dewpoint Dewpoint Depression Visibility Wind Speed Wind Dir Waves Ship Positions

Johann Essberger

Last reported at 2014-Nov-23 14:12 UTC. Time now 2014-Nov-23 14:45 UTC.
Position N 54°37' E 012°24'.

Length 100 m; draft 6.9 m.

Type: Ship (hazmat cat C). MMSI: 255804460.

Date/timePositionNaut miles runAvg speedWind from/ knotsBaromVisibWave heightAir tempDewpointWater temp
2014-Nov-23 14:12N 54°37' E 012°24'7 9.9
2014-Nov-23 13:30N 54°31' E 012°16'9 9.4
2014-Nov-23 12:33N 54°24' E 012°06'1010.3
2014-Nov-23 11:31N 54°24' E 011°48'31 9.8
2014-Nov-23 08:23N 54°35' E 010°59'8 9.6
2014-Nov-23 07:33N 54°34' E 010°45'1110.5
2014-Nov-23 06:33N 54°32' E 010°27'1010.5
2014-Nov-23 05:33N 54°25' E 010°13'4 4.1
2014-Nov-23 04:33N 54°22' E 010°09'5 4.9
2014-Nov-23 03:33N 54°21' E 010°00'5 5.0
2014-Nov-23 02:33N 54°22' E 009°52'8 7.4
2014-Nov-23 01:32N 54°18' E 009°41'6 6.5
2014-Nov-23 00:33N 54°13' E 009°34'5 5.2
2014-Nov-22 23:33N 54°10' E 009°26'6 5.1
2014-Nov-22 22:28N 54°06' E 009°20'8 8.3
2014-Nov-22 21:33N 53°59' E 009°17'7 7.1
2014-Nov-22 20:33N 53°54' E 009°09'1 1.2
2014-Nov-22 19:34N 53°53' E 009°07'8 8.5
2014-Nov-22 18:34N 53°51' E 008°53'9 9.3
2014-Nov-22 17:33N 53°55' E 008°40'1010.4
2014-Nov-22 16:33N 53°59' E 008°23'1211.6
2014-Nov-22 15:33N 53°60' E 008°04'1110.7
2014-Nov-22 14:33N 54°05' E 007°47'1010.1
2014-Nov-22 13:33N 54°09' E 007°32'1110.7
2014-Nov-22 12:33N 54°09' E 007°14'4210.5
2014-Nov-22 08:33N 54°07' E 006°02'1010.5
2014-Nov-22 07:33N 54°06' E 005°44'1010.2
2014-Nov-22 06:34N 54°04' E 005°27'10 9.9
2014-Nov-22 05:33N 54°03' E 005°10'10 9.7
2014-Nov-22 04:33N 54°02' E 004°54'154 9.1
2014-Nov-21 11:33N 53°34' E 000°37'10 9.5
2014-Nov-21 10:33N 53°32' E 000°21'1010.2
2014-Nov-21 09:33N 53°35' E 000°05'1212.2
2014-Nov-21 08:33N 53°41' W 000°14'2 2.1
2014-Nov-21 07:26N 53°44' W 000°15'0 0.0
2014-Nov-20 09:24N 53°44' W 000°15'4 4.4
2014-Nov-20 08:33N 53°40' W 000°13'1110.7
2014-Nov-20 07:33N 53°35' E 000°03'1010.4
2014-Nov-20 06:33N 53°33' E 000°21'10 9.3
2014-Nov-20 05:32N 53°28' E 000°34'2610.8
2014-Nov-20 03:09N 53°17' E 001°13'711.3
2014-Nov-20 02:30N 53°14' E 001°24'1111.1
2014-Nov-20 01:33N 53°10' E 001°40'1111.3
2014-Nov-20 00:33N 53°05' E 001°57'84 8.9
2014-Nov-19 15:10N 52°07' E 003°37'711.9
2014-Nov-19 14:33N 52°05' E 003°48'1212.4
2014-Nov-19 13:33N 51°59' E 004°06'9 8.8
2014-Nov-19 12:33N 51°53' E 004°17'0 0.1
2014-Nov-19 11:33N 51°54' E 004°17'0 0.0
2014-Nov-19 10:31N 51°54' E 004°17'0 0.0
2014-Nov-18 16:03N 51°54' E 004°17'0 0.5
2014-Nov-18 15:33N 51°53' E 004°17'3 3.2
2014-Nov-18 14:33N 51°56' E 004°14'1211.9
2014-Nov-18 13:33N 52°00' E 003°56'12 2.4
2014-Nov-18 08:31N 52°08' E 003°41'0 0.0
2014-Nov-18 05:19N 52°08' E 003°41'0 0.0
2014-Nov-17 20:19N 52°08' E 003°41'0 0.0
2014-Nov-17 15:13N 52°08' E 003°41'0 0.0
2014-Nov-17 06:07N 52°08' E 003°41'0 0.1
2014-Nov-17 05:31N 52°08' E 003°41'0 0.0
2014-Nov-17 04:31N 52°08' E 003°41'0 0.0
2014-Nov-17 03:33N 52°08' E 003°41'12 6.0
2014-Nov-17 01:30N 52°20' E 003°47'113 9.4
2014-Nov-16 13:32N 54°04' E 004°57'9 9.6
2014-Nov-16 12:33N 54°06' E 005°12'10 9.8
2014-Nov-16 11:33N 54°07' E 005°29'1010.2
2014-Nov-16 10:33N 54°09' E 005°46'4410.8
2014-Nov-16 06:30N 54°12' E 007°01'1010.7
2014-Nov-16 05:33N 54°12' E 007°18'1010.5
2014-Nov-16 04:33N 54°11' E 007°36'1110.6
2014-Nov-16 03:33N 54°06' E 007°52'1010.3
2014-Nov-16 02:33N 54°01' E 008°07'1211.6
2014-Nov-16 01:33N 53°59' E 008°26'1313.2
2014-Nov-16 00:34N 53°52' E 008°45'1514.5
2014-Nov-15 23:33N 53°53' E 009°09'1414.0
2014-Nov-15 22:32N 53°44' E 009°28'5 0.1
2014-Nov-14 12:33N 53°39' E 009°31'0 0.1
2014-Nov-14 11:33N 53°39' E 009°31'0 0.0
2014-Nov-14 10:31N 53°39' E 009°31'0 0.0
2014-Nov-13 16:14N 53°39' E 009°31'2 3.1
2014-Nov-13 15:34N 53°41' E 009°30'1515.4
2014-Nov-13 14:33N 53°53' E 009°13'  

Dump ship's entire track history